sensor_id;sensor_type;location;lat;lon;timestamp;temperature;humidity
6738;DHT22;3406;49.902;8.596;2023-05-10T00:01:32;14.50;99.90
6738;DHT22;3406;49.902;8.596;2023-05-10T00:03:59;14.60;99.90
6738;DHT22;3406;49.902;8.596;2023-05-10T00:06:26;14.50;99.90
6738;DHT22;3406;49.902;8.596;2023-05-10T00:08:53;14.50;99.90
6738;DHT22;3406;49.902;8.596;2023-05-10T00:11:20;14.50;99.90
6738;DHT22;3406;49.902;8.596;2023-05-10T00:13:48;14.50;99.90
6738;DHT22;3406;49.902;8.596;2023-05-10T00:16:14;14.50;99.90
6738;DHT22;3406;49.902;8.596;2023-05-10T00:18:41;14.40;99.90
6738;DHT22;3406;49.902;8.596;2023-05-10T00:21:08;14.40;99.90
6738;DHT22;3406;49.902;8.596;2023-05-10T00:23:34;14.40;99.90
6738;DHT22;3406;49.902;8.596;2023-05-10T00:26:01;14.40;99.90
6738;DHT22;3406;49.902;8.596;2023-05-10T00:28:28;14.40;99.90
6738;DHT22;3406;49.902;8.596;2023-05-10T00:30:56;14.40;99.90
6738;DHT22;3406;49.902;8.596;2023-05-10T00:33:23;14.40;99.90
6738;DHT22;3406;49.902;8.596;2023-05-10T00:35:49;14.40;99.90
6738;DHT22;3406;49.902;8.596;2023-05-10T00:38:16;14.40;99.90
6738;DHT22;3406;49.902;8.596;2023-05-10T00:40:43;14.40;99.90
6738;DHT22;3406;49.902;8.596;2023-05-10T00:43:10;14.40;99.90
6738;DHT22;3406;49.902;8.596;2023-05-10T00:45:37;14.40;99.90
6738;DHT22;3406;49.902;8.596;2023-05-10T00:48:06;14.30;99.90
6738;DHT22;3406;49.902;8.596;2023-05-10T00:50:33;14.30;99.90
6738;DHT22;3406;49.902;8.596;2023-05-10T00:53:00;14.30;99.90
6738;DHT22;3406;49.902;8.596;2023-05-10T00:55:27;14.30;99.90
6738;DHT22;3406;49.902;8.596;2023-05-10T00:57:54;14.30;99.90
6738;DHT22;3406;49.902;8.596;2023-05-10T01:00:21;14.30;99.90
6738;DHT22;3406;49.902;8.596;2023-05-10T01:02:48;14.30;99.90
6738;DHT22;3406;49.902;8.596;2023-05-10T01:05:16;14.30;99.90
6738;DHT22;3406;49.902;8.596;2023-05-10T01:07:43;14.30;99.90
6738;DHT22;3406;49.902;8.596;2023-05-10T01:10:10;14.30;99.90
6738;DHT22;3406;49.902;8.596;2023-05-10T01:12:39;14.30;99.90
6738;DHT22;3406;49.902;8.596;2023-05-10T01:15:08;14.30;99.90
6738;DHT22;3406;49.902;8.596;2023-05-10T01:17:38;14.30;99.90
6738;DHT22;3406;49.902;8.596;2023-05-10T01:20:07;14.30;99.90
6738;DHT22;3406;49.902;8.596;2023-05-10T01:23:00;14.30;99.90
6738;DHT22;3406;49.902;8.596;2023-05-10T01:26:01;14.30;99.90
6738;DHT22;3406;49.902;8.596;2023-05-10T01:34:16;14.30;99.90
6738;DHT22;3406;49.902;8.596;2023-05-10T01:36:50;14.30;99.90
6738;DHT22;3406;49.902;8.596;2023-05-10T01:39:22;14.30;99.90
6738;DHT22;3406;49.902;8.596;2023-05-10T01:41:54;14.30;99.90
6738;DHT22;3406;49.902;8.596;2023-05-10T01:44:31;14.30;99.90
6738;DHT22;3406;49.902;8.596;2023-05-10T01:47:04;14.30;99.90
6738;DHT22;3406;49.902;8.596;2023-05-10T01:49:37;14.30;99.90
6738;DHT22;3406;49.902;8.596;2023-05-10T01:52:08;14.40;99.90
6738;DHT22;3406;49.902;8.596;2023-05-10T01:54:38;14.40;99.90
6738;DHT22;3406;49.902;8.596;2023-05-10T01:57:06;14.40;99.90
6738;DHT22;3406;49.902;8.596;2023-05-10T01:59:36;14.40;99.90
6738;DHT22;3406;49.902;8.596;2023-05-10T02:02:07;14.40;99.90
6738;DHT22;3406;49.902;8.596;2023-05-10T02:04:39;14.40;99.90
6738;DHT22;3406;49.902;8.596;2023-05-10T02:07:06;14.40;99.90
6738;DHT22;3406;49.902;8.596;2023-05-10T02:09:35;14.40;99.90
6738;DHT22;3406;49.902;8.596;2023-05-10T02:12:04;14.40;99.90
6738;DHT22;3406;49.902;8.596;2023-05-10T02:14:35;14.40;99.90
6738;DHT22;3406;49.902;8.596;2023-05-10T02:17:04;14.40;99.90
6738;DHT22;3406;49.902;8.596;2023-05-10T02:19:32;14.40;99.90
6738;DHT22;3406;49.902;8.596;2023-05-10T02:22:02;14.30;99.90
6738;DHT22;3406;49.902;8.596;2023-05-10T02:24:29;14.30;99.90
6738;DHT22;3406;49.902;8.596;2023-05-10T02:26:57;14.30;99.90
6738;DHT22;3406;49.902;8.596;2023-05-10T02:29:25;14.30;99.90
6738;DHT22;3406;49.902;8.596;2023-05-10T02:31:54;14.30;99.90
6738;DHT22;3406;49.902;8.596;2023-05-10T02:34:22;14.30;99.90
6738;DHT22;3406;49.902;8.596;2023-05-10T02:36:49;14.30;99.90
6738;DHT22;3406;49.902;8.596;2023-05-10T02:39:19;14.30;99.90
6738;DHT22;3406;49.902;8.596;2023-05-10T02:41:48;14.30;99.90
6738;DHT22;3406;49.902;8.596;2023-05-10T02:44:18;14.30;99.90
6738;DHT22;3406;49.902;8.596;2023-05-10T02:46:45;14.30;99.90
6738;DHT22;3406;49.902;8.596;2023-05-10T02:49:13;14.30;99.90
6738;DHT22;3406;49.902;8.596;2023-05-10T02:51:42;14.30;99.90
6738;DHT22;3406;49.902;8.596;2023-05-10T02:54:15;14.30;99.90
6738;DHT22;3406;49.902;8.596;2023-05-10T02:56:50;14.20;99.90
6738;DHT22;3406;49.902;8.596;2023-05-10T02:59:17;14.30;99.90
6738;DHT22;3406;49.902;8.596;2023-05-10T03:01:43;14.30;99.90
6738;DHT22;3406;49.902;8.596;2023-05-10T03:04:10;14.20;99.90
6738;DHT22;3406;49.902;8.596;2023-05-10T03:06:37;14.20;99.90
6738;DHT22;3406;49.902;8.596;2023-05-10T03:09:04;14.20;99.90
6738;DHT22;3406;49.902;8.596;2023-05-10T03:11:43;14.30;99.90
6738;DHT22;3406;49.902;8.596;2023-05-10T03:14:22;14.30;99.90
6738;DHT22;3406;49.902;8.596;2023-05-10T03:16:57;14.30;99.90
6738;DHT22;3406;49.902;8.596;2023-05-10T03:19:30;14.30;99.90
6738;DHT22;3406;49.902;8.596;2023-05-10T03:22:02;14.30;99.90
6738;DHT22;3406;49.902;8.596;2023-05-10T03:24:30;14.40;99.90
6738;DHT22;3406;49.902;8.596;2023-05-10T03:26:59;14.30;99.90
6738;DHT22;3406;49.902;8.596;2023-05-10T03:29:29;14.30;99.90
6738;DHT22;3406;49.902;8.596;2023-05-10T03:31:57;14.30;99.90
6738;DHT22;3406;49.902;8.596;2023-05-10T03:34:24;14.30;99.90
6738;DHT22;3406;49.902;8.596;2023-05-10T03:36:51;14.30;99.90
6738;DHT22;3406;49.902;8.596;2023-05-10T03:39:18;14.20;99.90
6738;DHT22;3406;49.902;8.596;2023-05-10T03:41:46;14.20;99.90
6738;DHT22;3406;49.902;8.596;2023-05-10T03:44:13;14.20;99.90
6738;DHT22;3406;49.902;8.596;2023-05-10T03:46:41;14.20;99.90
6738;DHT22;3406;49.902;8.596;2023-05-10T03:49:07;14.20;99.90
6738;DHT22;3406;49.902;8.596;2023-05-10T03:51:34;14.20;99.90
6738;DHT22;3406;49.902;8.596;2023-05-10T03:54:01;14.20;99.90
6738;DHT22;3406;49.902;8.596;2023-05-10T03:56:27;14.10;99.90
6738;DHT22;3406;49.902;8.596;2023-05-10T03:58:54;14.10;99.90
6738;DHT22;3406;49.902;8.596;2023-05-10T04:01:21;14.20;99.90
6738;DHT22;3406;49.902;8.596;2023-05-10T04:03:49;14.20;99.90
6738;DHT22;3406;49.902;8.596;2023-05-10T04:06:15;14.10;99.90
6738;DHT22;3406;49.902;8.596;2023-05-10T04:08:42;14.20;99.90
6738;DHT22;3406;49.902;8.596;2023-05-10T04:11:10;14.20;99.90
6738;DHT22;3406;49.902;8.596;2023-05-10T04:13:38;14.20;99.90
6738;DHT22;3406;49.902;8.596;2023-05-10T04:16:05;14.20;99.90
6738;DHT22;3406;49.902;8.596;2023-05-10T04:18:31;14.20;99.90
6738;DHT22;3406;49.902;8.596;2023-05-10T04:21:00;14.20;99.90
6738;DHT22;3406;49.902;8.596;2023-05-10T04:23:26;14.20;99.90
6738;DHT22;3406;49.902;8.596;2023-05-10T04:25:59;14.20;99.90
6738;DHT22;3406;49.902;8.596;2023-05-10T04:28:26;14.30;99.90
6738;DHT22;3406;49.902;8.596;2023-05-10T04:30:52;14.30;99.90
6738;DHT22;3406;49.902;8.596;2023-05-10T04:33:19;14.30;99.90
6738;DHT22;3406;49.902;8.596;2023-05-10T04:35:45;14.40;99.90
6738;DHT22;3406;49.902;8.596;2023-05-10T04:38:13;14.40;99.90
6738;DHT22;3406;49.902;8.596;2023-05-10T04:40:40;14.40;99.90
6738;DHT22;3406;49.902;8.596;2023-05-10T04:43:07;14.40;99.90
6738;DHT22;3406;49.902;8.596;2023-05-10T04:45:33;14.50;99.90
6738;DHT22;3406;49.902;8.596;2023-05-10T04:48:00;14.50;99.90
6738;DHT22;3406;49.902;8.596;2023-05-10T04:50:26;14.50;99.90
6738;DHT22;3406;49.902;8.596;2023-05-10T04:52:53;14.50;99.90
6738;DHT22;3406;49.902;8.596;2023-05-10T04:55:21;14.50;99.90
6738;DHT22;3406;49.902;8.596;2023-05-10T04:57:48;14.50;99.90
6738;DHT22;3406;49.902;8.596;2023-05-10T05:00:15;14.50;99.90
6738;DHT22;3406;49.902;8.596;2023-05-10T05:02:42;14.50;99.90
6738;DHT22;3406;49.902;8.596;2023-05-10T05:05:10;14.40;99.90
6738;DHT22;3406;49.902;8.596;2023-05-10T05:07:37;14.50;99.90
6738;DHT22;3406;49.902;8.596;2023-05-10T05:10:05;14.40;99.90
6738;DHT22;3406;49.902;8.596;2023-05-10T05:12:33;14.40;99.90
6738;DHT22;3406;49.902;8.596;2023-05-10T05:15:00;14.50;99.90
6738;DHT22;3406;49.902;8.596;2023-05-10T05:17:27;14.50;99.90
6738;DHT22;3406;49.902;8.596;2023-05-10T05:19:54;14.50;99.90
6738;DHT22;3406;49.902;8.596;2023-05-10T05:22:21;14.50;99.90
6738;DHT22;3406;49.902;8.596;2023-05-10T05:24:52;14.50;99.90
6738;DHT22;3406;49.902;8.596;2023-05-10T05:27:19;14.50;99.90
6738;DHT22;3406;49.902;8.596;2023-05-10T05:29:49;14.50;99.90
6738;DHT22;3406;49.902;8.596;2023-05-10T05:32:15;14.50;99.90
6738;DHT22;3406;49.902;8.596;2023-05-10T05:34:44;14.50;99.90
6738;DHT22;3406;49.902;8.596;2023-05-10T05:37:13;14.40;99.90
6738;DHT22;3406;49.902;8.596;2023-05-10T05:39:39;14.50;99.90
6738;DHT22;3406;49.902;8.596;2023-05-10T05:42:06;14.50;99.90
6738;DHT22;3406;49.902;8.596;2023-05-10T05:44:33;14.50;99.90
6738;DHT22;3406;49.902;8.596;2023-05-10T05:47:01;14.40;99.90
6738;DHT22;3406;49.902;8.596;2023-05-10T05:49:27;14.50;99.90
6738;DHT22;3406;49.902;8.596;2023-05-10T05:51:54;14.50;99.90
6738;DHT22;3406;49.902;8.596;2023-05-10T05:54:21;14.50;99.90
6738;DHT22;3406;49.902;8.596;2023-05-10T05:56:47;14.50;99.90
6738;DHT22;3406;49.902;8.596;2023-05-10T05:59:14;14.50;99.90
6738;DHT22;3406;49.902;8.596;2023-05-10T06:01:41;14.60;99.90
6738;DHT22;3406;49.902;8.596;2023-05-10T06:04:09;14.70;99.90
6738;DHT22;3406;49.902;8.596;2023-05-10T06:06:35;14.70;99.90
6738;DHT22;3406;49.902;8.596;2023-05-10T06:09:02;14.80;99.90
6738;DHT22;3406;49.902;8.596;2023-05-10T06:11:29;14.80;99.90
6738;DHT22;3406;49.902;8.596;2023-05-10T06:13:57;14.90;99.90
6738;DHT22;3406;49.902;8.596;2023-05-10T06:16:24;15.00;99.90
6738;DHT22;3406;49.902;8.596;2023-05-10T06:18:51;15.00;99.90
6738;DHT22;3406;49.902;8.596;2023-05-10T06:21:19;15.00;99.90
6738;DHT22;3406;49.902;8.596;2023-05-10T06:23:46;15.00;99.90
6738;DHT22;3406;49.902;8.596;2023-05-10T06:26:12;15.00;99.90
6738;DHT22;3406;49.902;8.596;2023-05-10T06:28:39;15.00;99.90
6738;DHT22;3406;49.902;8.596;2023-05-10T06:31:06;15.10;99.90
6738;DHT22;3406;49.902;8.596;2023-05-10T06:33:33;15.10;99.90
6738;DHT22;3406;49.902;8.596;2023-05-10T06:36:00;15.10;99.90
6738;DHT22;3406;49.902;8.596;2023-05-10T06:38:28;15.10;99.90
6738;DHT22;3406;49.902;8.596;2023-05-10T06:40:55;15.20;99.90
6738;DHT22;3406;49.902;8.596;2023-05-10T06:43:22;15.10;99.90
6738;DHT22;3406;49.902;8.596;2023-05-10T06:45:50;15.10;99.90
6738;DHT22;3406;49.902;8.596;2023-05-10T06:48:17;15.10;99.90
6738;DHT22;3406;49.902;8.596;2023-05-10T06:50:43;15.10;99.90
6738;DHT22;3406;49.902;8.596;2023-05-10T06:53:10;15.10;99.90
6738;DHT22;3406;49.902;8.596;2023-05-10T06:55:39;15.20;99.90
6738;DHT22;3406;49.902;8.596;2023-05-10T06:58:06;15.20;99.90
6738;DHT22;3406;49.902;8.596;2023-05-10T07:00:33;15.30;99.90
6738;DHT22;3406;49.902;8.596;2023-05-10T07:02:59;15.30;99.90
6738;DHT22;3406;49.902;8.596;2023-05-10T07:05:26;15.30;99.90
6738;DHT22;3406;49.902;8.596;2023-05-10T07:07:54;15.40;99.90
6738;DHT22;3406;49.902;8.596;2023-05-10T07:10:21;15.40;99.90
6738;DHT22;3406;49.902;8.596;2023-05-10T07:12:49;15.40;99.90
6738;DHT22;3406;49.902;8.596;2023-05-10T07:15:16;15.40;99.90
6738;DHT22;3406;49.902;8.596;2023-05-10T07:17:42;15.40;99.90
6738;DHT22;3406;49.902;8.596;2023-05-10T07:20:10;15.40;99.90
6738;DHT22;3406;49.902;8.596;2023-05-10T07:22:36;15.50;99.90
6738;DHT22;3406;49.902;8.596;2023-05-10T07:25:04;15.60;99.90
6738;DHT22;3406;49.902;8.596;2023-05-10T07:27:30;15.70;99.90
6738;DHT22;3406;49.902;8.596;2023-05-10T07:29:59;15.80;99.90
6738;DHT22;3406;49.902;8.596;2023-05-10T07:32:26;15.90;99.90
6738;DHT22;3406;49.902;8.596;2023-05-10T07:34:52;16.00;99.90
6738;DHT22;3406;49.902;8.596;2023-05-10T07:37:19;16.10;99.90
6738;DHT22;3406;49.902;8.596;2023-05-10T07:39:46;16.10;99.90
6738;DHT22;3406;49.902;8.596;2023-05-10T07:42:12;16.20;99.90
6738;DHT22;3406;49.902;8.596;2023-05-10T07:44:39;16.20;99.90
6738;DHT22;3406;49.902;8.596;2023-05-10T07:47:07;16.20;99.90
6738;DHT22;3406;49.902;8.596;2023-05-10T07:49:34;16.20;99.90
6738;DHT22;3406;49.902;8.596;2023-05-10T07:52:01;16.20;99.90
6738;DHT22;3406;49.902;8.596;2023-05-10T07:54:29;16.20;99.90
6738;DHT22;3406;49.902;8.596;2023-05-10T07:56:55;16.30;99.90
6738;DHT22;3406;49.902;8.596;2023-05-10T07:59:22;16.30;99.90
6738;DHT22;3406;49.902;8.596;2023-05-10T08:01:48;16.50;99.90
6738;DHT22;3406;49.902;8.596;2023-05-10T08:04:16;16.60;99.90
6738;DHT22;3406;49.902;8.596;2023-05-10T08:06:43;16.60;99.90
6738;DHT22;3406;49.902;8.596;2023-05-10T08:09:10;16.60;99.90
6738;DHT22;3406;49.902;8.596;2023-05-10T08:11:37;16.60;99.90
6738;DHT22;3406;49.902;8.596;2023-05-10T08:14:03;16.60;99.90
6738;DHT22;3406;49.902;8.596;2023-05-10T08:16:30;16.60;99.90
6738;DHT22;3406;49.902;8.596;2023-05-10T08:18:57;16.50;99.90
6738;DHT22;3406;49.902;8.596;2023-05-10T08:21:25;16.60;99.90
6738;DHT22;3406;49.902;8.596;2023-05-10T08:23:52;16.50;99.90
6738;DHT22;3406;49.902;8.596;2023-05-10T08:26:19;16.50;99.90
6738;DHT22;3406;49.902;8.596;2023-05-10T08:28:46;16.40;99.90
6738;DHT22;3406;49.902;8.596;2023-05-10T08:31:13;16.40;99.90
6738;DHT22;3406;49.902;8.596;2023-05-10T08:33:40;16.30;99.90
6738;DHT22;3406;49.902;8.596;2023-05-10T08:36:06;16.20;99.90
6738;DHT22;3406;49.902;8.596;2023-05-10T08:38:34;16.10;99.90
6738;DHT22;3406;49.902;8.596;2023-05-10T08:41:02;16.10;99.90
6738;DHT22;3406;49.902;8.596;2023-05-10T08:43:29;16.00;99.90
6738;DHT22;3406;49.902;8.596;2023-05-10T08:45:56;16.00;99.90
6738;DHT22;3406;49.902;8.596;2023-05-10T08:48:26;16.00;99.90
6738;DHT22;3406;49.902;8.596;2023-05-10T08:50:57;16.10;99.90
6738;DHT22;3406;49.902;8.596;2023-05-10T08:53:24;16.20;99.90
6738;DHT22;3406;49.902;8.596;2023-05-10T08:55:55;16.30;99.90
6738;DHT22;3406;49.902;8.596;2023-05-10T08:58:21;16.40;99.90
6738;DHT22;3406;49.902;8.596;2023-05-10T09:00:49;16.50;99.90
6738;DHT22;3406;49.902;8.596;2023-05-10T09:03:16;16.50;99.90
6738;DHT22;3406;49.902;8.596;2023-05-10T09:05:43;16.50;99.90
6738;DHT22;3406;49.902;8.596;2023-05-10T09:08:11;16.50;99.90
6738;DHT22;3406;49.902;8.596;2023-05-10T09:10:39;16.60;99.90
6738;DHT22;3406;49.902;8.596;2023-05-10T09:13:10;16.60;99.90
6738;DHT22;3406;49.902;8.596;2023-05-10T09:15:37;16.60;99.90
6738;DHT22;3406;49.902;8.596;2023-05-10T09:18:04;16.60;99.90
6738;DHT22;3406;49.902;8.596;2023-05-10T09:20:31;16.70;99.90
6738;DHT22;3406;49.902;8.596;2023-05-10T09:22:57;16.70;99.90
6738;DHT22;3406;49.902;8.596;2023-05-10T09:25:24;16.80;99.90
6738;DHT22;3406;49.902;8.596;2023-05-10T09:27:52;16.90;99.90
6738;DHT22;3406;49.902;8.596;2023-05-10T09:30:25;17.00;99.90
6738;DHT22;3406;49.902;8.596;2023-05-10T09:32:52;17.10;99.90
6738;DHT22;3406;49.902;8.596;2023-05-10T09:35:21;17.20;99.90
6738;DHT22;3406;49.902;8.596;2023-05-10T09:37:50;17.10;99.90
6738;DHT22;3406;49.902;8.596;2023-05-10T09:40:19;17.00;99.70
6738;DHT22;3406;49.902;8.596;2023-05-10T09:42:51;16.90;99.60
6738;DHT22;3406;49.902;8.596;2023-05-10T09:45:18;16.80;98.60
6738;DHT22;3406;49.902;8.596;2023-05-10T09:47:46;16.50;97.30
6738;DHT22;3406;49.902;8.596;2023-05-10T09:50:13;16.40;97.30
6738;DHT22;3406;49.902;8.596;2023-05-10T09:52:47;16.30;97.40
6738;DHT22;3406;49.902;8.596;2023-05-10T09:55:14;16.30;97.50
6738;DHT22;3406;49.902;8.596;2023-05-10T09:57:41;16.30;97.50
6738;DHT22;3406;49.902;8.596;2023-05-10T10:00:09;16.30;97.50
6738;DHT22;3406;49.902;8.596;2023-05-10T10:02:36;16.30;97.70
6738;DHT22;3406;49.902;8.596;2023-05-10T10:05:06;16.30;97.30
6738;DHT22;3406;49.902;8.596;2023-05-10T10:07:34;16.40;97.40
6738;DHT22;3406;49.902;8.596;2023-05-10T10:10:01;16.50;97.40
6738;DHT22;3406;49.902;8.596;2023-05-10T10:12:27;16.60;97.50
6738;DHT22;3406;49.902;8.596;2023-05-10T10:14:55;16.80;97.60
6738;DHT22;3406;49.902;8.596;2023-05-10T10:17:25;17.00;97.50
6738;DHT22;3406;49.902;8.596;2023-05-10T10:19:54;17.10;96.90
6738;DHT22;3406;49.902;8.596;2023-05-10T10:22:22;17.20;96.80
6738;DHT22;3406;49.902;8.596;2023-05-10T10:24:49;17.20;96.40
6738;DHT22;3406;49.902;8.596;2023-05-10T10:27:21;17.40;96.50
6738;DHT22;3406;49.902;8.596;2023-05-10T10:30:00;17.50;96.00
6738;DHT22;3406;49.902;8.596;2023-05-10T10:32:37;17.60;95.80
6738;DHT22;3406;49.902;8.596;2023-05-10T10:35:08;17.60;95.40
6738;DHT22;3406;49.902;8.596;2023-05-10T10:37:45;17.70;95.10
6738;DHT22;3406;49.902;8.596;2023-05-10T10:40:25;17.70;94.20
6738;DHT22;3406;49.902;8.596;2023-05-10T10:42:53;17.60;93.30
6738;DHT22;3406;49.902;8.596;2023-05-10T10:45:20;17.50;92.80
6738;DHT22;3406;49.902;8.596;2023-05-10T10:47:47;17.40;92.70
6738;DHT22;3406;49.902;8.596;2023-05-10T10:50:15;17.20;92.30
6738;DHT22;3406;49.902;8.596;2023-05-10T10:52:44;17.10;92.00
6738;DHT22;3406;49.902;8.596;2023-05-10T10:55:13;16.90;91.90
6738;DHT22;3406;49.902;8.596;2023-05-10T10:57:44;16.80;92.00
6738;DHT22;3406;49.902;8.596;2023-05-10T11:00:19;16.60;92.00
6738;DHT22;3406;49.902;8.596;2023-05-10T11:02:48;16.50;91.70
6738;DHT22;3406;49.902;8.596;2023-05-10T11:05:24;16.40;91.50
6738;DHT22;3406;49.902;8.596;2023-05-10T11:07:53;16.30;91.40
6738;DHT22;3406;49.902;8.596;2023-05-10T11:10:20;16.30;91.30
6738;DHT22;3406;49.902;8.596;2023-05-10T11:12:53;16.20;91.20
6738;DHT22;3406;49.902;8.596;2023-05-10T11:15:28;16.30;91.40
6738;DHT22;3406;49.902;8.596;2023-05-10T11:17:56;16.30;91.20
6738;DHT22;3406;49.902;8.596;2023-05-10T11:20:23;16.30;90.90
6738;DHT22;3406;49.902;8.596;2023-05-10T11:22:55;16.20;90.90
6738;DHT22;3406;49.902;8.596;2023-05-10T11:25:26;16.20;91.00
6738;DHT22;3406;49.902;8.596;2023-05-10T11:27:53;16.30;91.00
6738;DHT22;3406;49.902;8.596;2023-05-10T11:30:20;16.30;90.70
6738;DHT22;3406;49.902;8.596;2023-05-10T11:32:47;16.40;90.50
6738;DHT22;3406;49.902;8.596;2023-05-10T11:35:14;16.60;90.20
6738;DHT22;3406;49.902;8.596;2023-05-10T11:37:41;16.90;90.60
6738;DHT22;3406;49.902;8.596;2023-05-10T11:40:11;17.20;89.80
6738;DHT22;3406;49.902;8.596;2023-05-10T11:42:38;17.50;88.30
6738;DHT22;3406;49.902;8.596;2023-05-10T11:45:06;17.80;86.70
6738;DHT22;3406;49.902;8.596;2023-05-10T11:47:32;17.90;84.70
6738;DHT22;3406;49.902;8.596;2023-05-10T11:50:01;18.20;83.20
6738;DHT22;3406;49.902;8.596;2023-05-10T11:52:27;18.30;80.80
6738;DHT22;3406;49.902;8.596;2023-05-10T11:54:54;18.50;79.80
6738;DHT22;3406;49.902;8.596;2023-05-10T11:57:26;18.70;79.30
6738;DHT22;3406;49.902;8.596;2023-05-10T11:59:54;18.80;76.90
6738;DHT22;3406;49.902;8.596;2023-05-10T12:02:21;18.80;75.30
6738;DHT22;3406;49.902;8.596;2023-05-10T12:04:47;18.80;75.20
6738;DHT22;3406;49.902;8.596;2023-05-10T12:07:15;18.90;75.00
6738;DHT22;3406;49.902;8.596;2023-05-10T12:09:43;18.90;74.40
6738;DHT22;3406;49.902;8.596;2023-05-10T12:12:10;19.00;74.10
6738;DHT22;3406;49.902;8.596;2023-05-10T12:14:38;19.10;73.60
6738;DHT22;3406;49.902;8.596;2023-05-10T12:17:05;19.10;72.20
6738;DHT22;3406;49.902;8.596;2023-05-10T12:19:37;19.20;71.60
6738;DHT22;3406;49.902;8.596;2023-05-10T12:22:04;19.30;71.70
6738;DHT22;3406;49.902;8.596;2023-05-10T12:24:34;19.30;71.30
6738;DHT22;3406;49.902;8.596;2023-05-10T12:27:04;19.40;71.70
6738;DHT22;3406;49.902;8.596;2023-05-10T12:29:33;19.50;71.70
6738;DHT22;3406;49.902;8.596;2023-05-10T12:32:02;19.50;71.30
6738;DHT22;3406;49.902;8.596;2023-05-10T12:34:31;19.40;70.70
6738;DHT22;3406;49.902;8.596;2023-05-10T12:36:59;19.30;70.70
6738;DHT22;3406;49.902;8.596;2023-05-10T12:39:26;19.30;70.70
6738;DHT22;3406;49.902;8.596;2023-05-10T12:41:52;19.40;69.70
6738;DHT22;3406;49.902;8.596;2023-05-10T12:44:19;19.40;68.00
6738;DHT22;3406;49.902;8.596;2023-05-10T12:46:46;19.50;67.70
6738;DHT22;3406;49.902;8.596;2023-05-10T12:49:14;19.60;67.20
6738;DHT22;3406;49.902;8.596;2023-05-10T12:51:42;19.50;67.20
6738;DHT22;3406;49.902;8.596;2023-05-10T12:54:08;19.60;67.20
6738;DHT22;3406;49.902;8.596;2023-05-10T12:56:35;19.60;66.60
6738;DHT22;3406;49.902;8.596;2023-05-10T12:59:02;19.60;65.40
6738;DHT22;3406;49.902;8.596;2023-05-10T13:01:29;19.60;65.60
6738;DHT22;3406;49.902;8.596;2023-05-10T13:03:55;19.60;65.70
6738;DHT22;3406;49.902;8.596;2023-05-10T13:06:23;19.60;65.60
6738;DHT22;3406;49.902;8.596;2023-05-10T13:08:50;19.50;65.30
6738;DHT22;3406;49.902;8.596;2023-05-10T13:11:17;19.50;65.40
6738;DHT22;3406;49.902;8.596;2023-05-10T13:13:45;19.50;65.20
6738;DHT22;3406;49.902;8.596;2023-05-10T13:16:11;19.50;64.60
6738;DHT22;3406;49.902;8.596;2023-05-10T13:18:38;19.50;63.50
6738;DHT22;3406;49.902;8.596;2023-05-10T13:21:05;19.50;62.40
6738;DHT22;3406;49.902;8.596;2023-05-10T13:23:34;19.50;61.70
6738;DHT22;3406;49.902;8.596;2023-05-10T13:26:00;19.40;61.70
6738;DHT22;3406;49.902;8.596;2023-05-10T13:28:27;19.40;62.80
6738;DHT22;3406;49.902;8.596;2023-05-10T13:30:54;19.30;63.60
6738;DHT22;3406;49.902;8.596;2023-05-10T13:33:21;19.20;64.30
6738;DHT22;3406;49.902;8.596;2023-05-10T13:35:48;19.10;64.70
6738;DHT22;3406;49.902;8.596;2023-05-10T13:38:14;19.10;65.20
6738;DHT22;3406;49.902;8.596;2023-05-10T13:40:42;19.00;65.60
6738;DHT22;3406;49.902;8.596;2023-05-10T13:43:09;19.10;66.00
6738;DHT22;3406;49.902;8.596;2023-05-10T13:45:35;19.20;66.90
6738;DHT22;3406;49.902;8.596;2023-05-10T13:48:02;19.30;66.00
6738;DHT22;3406;49.902;8.596;2023-05-10T13:50:30;19.40;65.40
6738;DHT22;3406;49.902;8.596;2023-05-10T13:52:56;19.40;64.70
6738;DHT22;3406;49.902;8.596;2023-05-10T13:55:23;19.40;63.90
6738;DHT22;3406;49.902;8.596;2023-05-10T13:57:51;19.50;64.30
6738;DHT22;3406;49.902;8.596;2023-05-10T14:00:18;19.50;64.10
6738;DHT22;3406;49.902;8.596;2023-05-10T14:02:45;19.50;64.00
6738;DHT22;3406;49.902;8.596;2023-05-10T14:05:11;19.50;64.50
6738;DHT22;3406;49.902;8.596;2023-05-10T14:07:38;19.60;64.30
6738;DHT22;3406;49.902;8.596;2023-05-10T14:10:05;19.60;64.20
6738;DHT22;3406;49.902;8.596;2023-05-10T14:12:32;19.60;64.50
6738;DHT22;3406;49.902;8.596;2023-05-10T14:15:00;19.70;64.70
6738;DHT22;3406;49.902;8.596;2023-05-10T14:17:27;19.80;64.80
6738;DHT22;3406;49.902;8.596;2023-05-10T14:19:54;19.80;64.70
6738;DHT22;3406;49.902;8.596;2023-05-10T14:22:20;19.70;64.20
6738;DHT22;3406;49.902;8.596;2023-05-10T14:24:48;19.60;64.20
6738;DHT22;3406;49.902;8.596;2023-05-10T14:27:14;19.40;64.00
6738;DHT22;3406;49.902;8.596;2023-05-10T14:29:41;19.30;64.00
6738;DHT22;3406;49.902;8.596;2023-05-10T14:32:09;19.20;64.10
6738;DHT22;3406;49.902;8.596;2023-05-10T14:34:36;19.00;64.30
6738;DHT22;3406;49.902;8.596;2023-05-10T14:37:02;18.90;64.70
6738;DHT22;3406;49.902;8.596;2023-05-10T14:39:30;18.90;64.90
6738;DHT22;3406;49.902;8.596;2023-05-10T14:41:56;18.90;65.30
6738;DHT22;3406;49.902;8.596;2023-05-10T14:44:26;18.90;65.50
6738;DHT22;3406;49.902;8.596;2023-05-10T14:46:53;18.90;65.90
6738;DHT22;3406;49.902;8.596;2023-05-10T14:49:21;18.90;66.60
6738;DHT22;3406;49.902;8.596;2023-05-10T14:51:51;19.00;66.10
6738;DHT22;3406;49.902;8.596;2023-05-10T14:54:18;19.10;66.30
6738;DHT22;3406;49.902;8.596;2023-05-10T14:56:44;19.20;66.00
6738;DHT22;3406;49.902;8.596;2023-05-10T14:59:11;19.30;65.90
6738;DHT22;3406;49.902;8.596;2023-05-10T15:01:38;19.30;65.60
6738;DHT22;3406;49.902;8.596;2023-05-10T15:04:07;19.20;65.50
6738;DHT22;3406;49.902;8.596;2023-05-10T15:06:35;19.20;65.50
6738;DHT22;3406;49.902;8.596;2023-05-10T15:09:02;19.10;64.90
6738;DHT22;3406;49.902;8.596;2023-05-10T15:11:29;19.00;65.10
6738;DHT22;3406;49.902;8.596;2023-05-10T15:13:56;19.00;65.40
6738;DHT22;3406;49.902;8.596;2023-05-10T15:16:23;19.00;65.60
6738;DHT22;3406;49.902;8.596;2023-05-10T15:18:50;18.90;65.80
6738;DHT22;3406;49.902;8.596;2023-05-10T15:21:16;18.90;66.00
6738;DHT22;3406;49.902;8.596;2023-05-10T15:23:44;18.90;66.30
6738;DHT22;3406;49.902;8.596;2023-05-10T15:26:11;18.90;66.40
6738;DHT22;3406;49.902;8.596;2023-05-10T15:28:38;18.90;66.50
6738;DHT22;3406;49.902;8.596;2023-05-10T15:31:04;18.90;66.40
6738;DHT22;3406;49.902;8.596;2023-05-10T15:33:31;19.00;66.40
6738;DHT22;3406;49.902;8.596;2023-05-10T15:35:58;18.90;66.20
6738;DHT22;3406;49.902;8.596;2023-05-10T15:38:24;18.90;66.30
6738;DHT22;3406;49.902;8.596;2023-05-10T15:40:55;18.90;66.20
6738;DHT22;3406;49.902;8.596;2023-05-10T15:43:22;18.90;65.80
6738;DHT22;3406;49.902;8.596;2023-05-10T15:45:49;18.90;65.30
6738;DHT22;3406;49.902;8.596;2023-05-10T15:48:16;19.00;64.50
6738;DHT22;3406;49.902;8.596;2023-05-10T15:50:42;19.00;63.70
6738;DHT22;3406;49.902;8.596;2023-05-10T15:53:09;19.10;63.50
6738;DHT22;3406;49.902;8.596;2023-05-10T15:55:35;19.10;63.20
6738;DHT22;3406;49.902;8.596;2023-05-10T15:58:04;19.10;62.90
6738;DHT22;3406;49.902;8.596;2023-05-10T16:00:30;19.10;62.60
6738;DHT22;3406;49.902;8.596;2023-05-10T16:02:57;19.00;61.90
6738;DHT22;3406;49.902;8.596;2023-05-10T16:05:23;19.00;61.80
6738;DHT22;3406;49.902;8.596;2023-05-10T16:07:51;19.00;62.00
6738;DHT22;3406;49.902;8.596;2023-05-10T16:10:19;19.00;62.10
6738;DHT22;3406;49.902;8.596;2023-05-10T16:12:46;19.00;62.00